Time;durP1;ratioP1;P1;durP2;ratioP2;P2;SDS_P1;SDS_P2;PMS_P1;PMS_P2;Temp;Humidity;BMP_temperature;BMP_pressure;BME280_temperature;BME280_humidity;BME280_pressure;Samples;Min_cycle;Max_cycle;Signal;HPM_P1;HPM_P2
2021/06/12 00:00:59;;;;;;;3.65;3.35;;;;;;;;;;5048594;28;20180;-47
2021/06/12 00:03:25;;;;;;;4.03;3.70;;;;;;;;;;5054738;28;20543;-48
2021/06/12 00:05:51;;;;;;;4.60;3.42;;;;;;;;;;5050187;28;20183;-48
2021/06/12 00:08:17;;;;;;;3.60;3.30;;;;;;;;;;5035408;28;20203;-48
2021/06/12 00:10:44;;;;;;;3.30;3.10;;;;;;;;;;5044786;28;20462;-48
2021/06/12 00:13:10;;;;;;;4.57;3.33;;;;;;;;;;5054610;28;20179;-48
2021/06/12 00:15:36;;;;;;;4.00;3.60;;;;;;;;;;5054683;28;20241;-48
2021/06/12 00:18:03;;;;;;;3.50;3.20;;;;;;;;;;5054910;28;20171;-48
2021/06/12 00:20:30;;;;;;;3.67;3.35;;;;;;;;;;5051113;28;20176;-48
2021/06/12 00:22:56;;;;;;;4.18;3.33;;;;;;;;;;5050986;28;20222;-48
2021/06/12 00:25:26;;;;;;;3.85;3.50;;;;;;;;;;5054519;28;20565;-48
2021/06/12 00:27:55;;;;;;;3.50;3.20;;;;;;;;;;5055048;28;20176;-48
2021/06/12 00:30:21;;;;;;;3.97;3.20;;;;;;;;;;5054528;28;20179;-48
2021/06/12 00:32:47;;;;;;;3.90;3.50;;;;;;;;;;5053523;28;20617;-48
2021/06/12 00:35:13;;;;;;;3.88;3.30;;;;;;;;;;5055188;28;20479;-48
2021/06/12 00:37:39;;;;;;;3.70;3.40;;;;;;;;;;5052781;28;20248;-48
2021/06/12 00:40:06;;;;;;;3.97;3.60;;;;;;;;;;5054619;28;20531;-48
2021/06/12 00:42:32;;;;;;;3.85;3.55;;;;;;;;;;5054277;28;20171;-48
2021/06/12 00:44:58;;;;;;;3.47;3.17;;;;;;;;;;5054199;28;20164;-48
2021/06/12 00:47:24;;;;;;;3.50;3.20;;;;;;;;;;5052487;28;20179;-48
2021/06/12 00:49:50;;;;;;;3.80;3.50;;;;;;;;;;5054592;28;20256;-48
2021/06/12 00:52:16;;;;;;;3.33;3.03;;;;;;;;;;5054292;28;20167;-48
2021/06/12 00:54:42;;;;;;;3.10;2.90;;;;;;;;;;5053727;28;20187;-48
2021/06/12 00:57:09;;;;;;;3.33;3.13;;;;;;;;;;5054181;28;20260;-48
2021/06/12 00:59:35;;;;;;;3.88;3.20;;;;;;;;;;5054380;28;20486;-48
2021/06/12 01:02:01;;;;;;;4.40;3.58;;;;;;;;;;5047427;28;20179;-48
2021/06/12 01:04:27;;;;;;;3.70;3.40;;;;;;;;;;5054212;28;20247;-48
2021/06/12 01:06:53;;;;;;;3.20;3.00;;;;;;;;;;5054581;28;20206;-48
2021/06/12 01:09:21;;;;;;;3.20;3.00;;;;;;;;;;5048975;28;20566;-48
2021/06/12 01:12:05;;;;;;;3.60;3.30;;;;;;;;;;5042951;28;21493;-48
2021/06/12 01:14:32;;;;;;;3.42;3.15;;;;;;;;;;5054145;28;20699;-48
2021/06/12 01:17:02;;;;;;;4.20;3.53;;;;;;;;;;5053971;28;20198;-48
2021/06/12 01:19:46;;;;;;;3.00;2.80;;;;;;;;;;5054549;28;20168;-48
2021/06/12 01:22:17;;;;;;;3.60;3.33;;;;;;;;;;5053301;28;20183;-48
2021/06/12 01:25:02;;;;;;;3.25;3.00;;;;;;;;;;5054145;28;20420;-48
2021/06/12 01:27:47;;;;;;;2.92;2.72;;;;;;;;;;5050538;28;20222;-48
2021/06/12 01:30:22;;;;;;;3.60;3.30;;;;;;;;;;5057937;28;20477;-47
2021/06/12 01:32:53;;;;;;;3.47;3.08;;;;;;;;;;5057449;28;20159;-47
2021/06/12 01:35:24;;;;;;;3.20;2.83;;;;;;;;;;5057739;28;20207;-48
2021/06/12 01:37:50;;;;;;;3.78;3.47;;;;;;;;;;5057668;28;20249;-48
2021/06/12 01:40:17;;;;;;;6.90;3.53;;;;;;;;;;5057681;28;20690;-48
2021/06/12 01:42:44;;;;;;;3.85;3.20;;;;;;;;;;5056239;28;20183;-48
2021/06/12 01:45:11;;;;;;;3.67;3.38;;;;;;;;;;5057673;28;20179;-48
2021/06/12 01:47:37;;;;;;;3.58;2.95;;;;;;;;;;5057378;28;20183;-48
2021/06/12 01:50:04;;;;;;;4.07;3.15;;;;;;;;;;5057469;28;20187;-48
2021/06/12 01:52:30;;;;;;;3.72;3.33;;;;;;;;;;5057358;28;20175;-48
2021/06/12 01:54:57;;;;;;;4.05;3.30;;;;;;;;;;5057296;28;20176;-48
2021/06/12 01:57:24;;;;;;;4.72;3.33;;;;;;;;;;5045541;28;20171;-48
2021/06/12 01:59:51;;;;;;;4.03;3.33;;;;;;;;;;5057285;28;20558;-48
2021/06/12 02:02:18;;;;;;;6.47;3.63;;;;;;;;;;5053875;28;20229;-48
2021/06/12 02:04:44;;;;;;;3.40;3.20;;;;;;;;;;5056352;28;20172;-48
2021/06/12 02:07:11;;;;;;;3.03;2.83;;;;;;;;;;5056785;28;20228;-48
2021/06/12 02:09:38;;;;;;;3.20;2.92;;;;;;;;;;5054730;28;20179;-48
2021/06/12 02:12:05;;;;;;;3.38;3.17;;;;;;;;;;5054812;28;20194;-48
2021/06/12 02:14:31;;;;;;;3.35;3.05;;;;;;;;;;5056880;28;20254;-48
2021/06/12 02:16:57;;;;;;;3.20;3.00;;;;;;;;;;5057351;28;20266;-48
2021/06/12 02:19:24;;;;;;;4.45;3.53;;;;;;;;;;5056744;28;20178;-48
2021/06/12 02:21:50;;;;;;;4.82;3.30;;;;;;;;;;5056602;28;20566;-48
2021/06/12 02:24:17;;;;;;;3.42;3.20;;;;;;;;;;5048511;28;20176;-48
2021/06/12 02:26:45;;;;;;;3.38;3.08;;;;;;;;;;5052325;28;20184;-48
2021/06/12 02:29:12;;;;;;;3.75;3.10;;;;;;;;;;5056352;28;20187;-48
2021/06/12 02:31:42;;;;;;;3.88;3.00;;;;;;;;;;5056528;28;20168;-48
2021/06/12 02:34:08;;;;;;;3.38;2.60;;;;;;;;;;5056544;28;20167;-48
2021/06/12 02:36:34;;;;;;;3.42;2.90;;;;;;;;;;5056889;28;20207;-48
2021/06/12 02:39:00;;;;;;;3.70;2.72;;;;;;;;;;5053672;28;20180;-48
2021/06/12 02:41:26;;;;;;;2.90;2.70;;;;;;;;;;5055705;28;20544;-48
2021/06/12 02:43:52;;;;;;;3.15;2.95;;;;;;;;;;5056586;28;20193;-48
2021/06/12 02:46:22;;;;;;;2.90;2.70;;;;;;;;;;5053143;28;20218;-48
2021/06/12 02:48:52;;;;;;;3.28;3.00;;;;;;;;;;5047718;28;20167;-48
2021/06/12 02:51:18;;;;;;;4.45;2.80;;;;;;;;;;5036361;28;20214;-48
2021/06/12 02:53:45;;;;;;;6.50;3.60;;;;;;;;;;5036697;28;20187;-48
2021/06/12 02:56:11;;;;;;;2.72;2.53;;;;;;;;;;5047099;28;20278;-48
2021/06/12 02:58:39;;;;;;;3.13;2.92;;;;;;;;;;5055742;28;20563;-48
2021/06/12 03:01:05;;;;;;;3.30;3.00;;;;;;;;;;5055879;28;20194;-48
2021/06/12 03:03:33;;;;;;;3.35;3.05;;;;;;;;;;5056361;28;20705;-48
2021/06/12 03:06:00;;;;;;;4.88;3.22;;;;;;;;;;5055274;28;20187;-48
2021/06/12 03:08:29;;;;;;;3.38;3.05;;;;;;;;;;5055814;28;20183;-48
2021/06/12 03:10:55;;;;;;;3.53;3.28;;;;;;;;;;5054908;28;20202;-48
2021/06/12 03:13:26;;;;;;;3.50;3.13;;;;;;;;;;5056037;28;20179;-48
2021/06/12 03:15:53;;;;;;;3.28;3.08;;;;;;;;;;5056195;28;20274;-48
2021/06/12 03:18:19;;;;;;;3.75;3.45;;;;;;;;;;5055767;28;20380;-48
2021/06/12 03:20:45;;;;;;;3.63;3.25;;;;;;;;;;5054964;28;20186;-48
2021/06/12 03:23:11;;;;;;;3.10;2.90;;;;;;;;;;5054644;28;20210;-48
2021/06/12 03:25:38;;;;;;;3.20;3.00;;;;;;;;;;5055642;28;20179;-48
2021/06/12 03:28:04;;;;;;;3.10;2.88;;;;;;;;;;5055455;28;20470;-48
2021/06/12 03:30:31;;;;;;;3.28;2.80;;;;;;;;;;5055319;28;20550;-48
2021/06/12 03:32:57;;;;;;;3.33;3.05;;;;;;;;;;5055072;28;20602;-48
2021/06/12 03:35:23;;;;;;;3.25;3.00;;;;;;;;;;5052150;28;20226;-48
2021/06/12 03:37:50;;;;;;;3.70;3.40;;;;;;;;;;5055092;28;20183;-48
2021/06/12 03:40:16;;;;;;;3.10;2.90;;;;;;;;;;5054856;28;20179;-48
2021/06/12 03:42:43;;;;;;;3.50;3.20;;;;;;;;;;5049981;28;20454;-48
2021/06/12 03:45:10;;;;;;;3.50;3.20;;;;;;;;;;5055508;28;20309;-48
2021/06/12 03:47:36;;;;;;;5.05;3.20;;;;;;;;;;5054154;28;20176;-48
2021/06/12 03:50:03;;;;;;;3.50;3.20;;;;;;;;;;5054955;28;20270;-48
2021/06/12 03:52:30;;;;;;;3.17;2.80;;;;;;;;;;5054217;28;20560;-48
2021/06/12 03:54:57;;;;;;;3.08;2.88;;;;;;;;;;5054897;28;20622;-48
2021/06/12 03:57:23;;;;;;;3.28;3.08;;;;;;;;;;5054373;28;20229;-48
2021/06/12 03:59:49;;;;;;;3.10;2.80;;;;;;;;;;5055212;28;20190;-48
2021/06/12 04:02:16;;;;;;;4.10;3.00;;;;;;;;;;5049200;28;20258;-48
2021/06/12 04:04:44;;;;;;;3.60;3.30;;;;;;;;;;5055240;28;20470;-48
2021/06/12 04:07:10;;;;;;;4.03;3.42;;;;;;;;;;5054465;28;20183;-47
2021/06/12 04:09:36;;;;;;;3.65;3.35;;;;;;;;;;5054332;28;20295;-48
2021/06/12 04:12:02;;;;;;;5.38;3.47;;;;;;;;;;5051909;28;20179;-48
2021/06/12 04:14:28;;;;;;;3.42;3.13;;;;;;;;;;5035120;28;20171;-48
2021/06/12 04:16:54;;;;;;;3.60;3.30;;;;;;;;;;5043990;28;20202;-48
2021/06/12 04:19:20;;;;;;;3.00;2.80;;;;;;;;;;5054970;28;20194;-48
2021/06/12 04:21:48;;;;;;;3.50;3.20;;;;;;;;;;5054222;28;20182;-48
2021/06/12 04:24:14;;;;;;;3.65;3.35;;;;;;;;;;5054242;28;20290;-48
2021/06/12 04:26:40;;;;;;;4.75;3.35;;;;;;;;;;5054291;28;20257;-48
2021/06/12 04:29:06;;;;;;;4.13;3.70;;;;;;;;;;5053856;28;20214;-48
2021/06/12 04:31:32;;;;;;;3.85;3.42;;;;;;;;;;5054165;28;20218;-48
2021/06/12 04:33:58;;;;;;;4.72;3.22;;;;;;;;;;5054516;28;20195;-48
2021/06/12 04:36:25;;;;;;;3.20;3.00;;;;;;;;;;5054199;28;20213;-48
2021/06/12 04:38:50;;;;;;;3.72;3.28;;;;;;;;;;5054523;28;20163;-48
2021/06/12 04:41:17;;;;;;;3.60;3.30;;;;;;;;;;5053654;28;20716;-48
2021/06/12 04:43:43;;;;;;;3.63;3.40;;;;;;;;;;5049116;28;20167;-48
2021/06/12 04:46:09;;;;;;;3.70;3.40;;;;;;;;;;5054487;28;20167;-48
2021/06/12 04:48:35;;;;;;;3.67;3.30;;;;;;;;;;5054344;28;20194;-48
2021/06/12 04:51:01;;;;;;;3.60;3.30;;;;;;;;;;5053789;28;20233;-48
2021/06/12 04:53:30;;;;;;;3.35;3.15;;;;;;;;;;5054232;28;20167;-48
2021/06/12 04:55:56;;;;;;;3.65;3.30;;;;;;;;;;5053936;28;20202;-48
2021/06/12 04:58:22;;;;;;;3.53;3.22;;;;;;;;;;5053527;28;20207;-48
2021/06/12 05:00:50;;;;;;;3.88;3.58;;;;;;;;;;5053706;28;20233;-48
2021/06/12 05:03:18;;;;;;;3.83;3.45;;;;;;;;;;5055470;28;20247;-48
2021/06/12 05:05:44;;;;;;;3.97;3.60;;;;;;;;;;5055122;28;20248;-47
2021/06/12 05:08:10;;;;;;;8.73;3.72;;;;;;;;;;5058427;28;20542;-48
2021/06/12 05:10:36;;;;;;;4.28;3.75;;;;;;;;;;5057217;28;20434;-48
2021/06/12 05:13:03;;;;;;;5.93;3.97;;;;;;;;;;5057749;28;20252;-48
2021/06/12 05:15:30;;;;;;;6.03;3.90;;;;;;;;;;5058327;28;20206;-48
2021/06/12 05:18:03;;;;;;;6.03;4.10;;;;;;;;;;5057747;28;20167;-48
2021/06/12 05:20:29;;;;;;;12.05;4.40;;;;;;;;;;5053551;28;20178;-48
2021/06/12 05:22:55;;;;;;;4.80;3.88;;;;;;;;;;5056715;28;20175;-48
2021/06/12 05:25:22;;;;;;;7.38;4.35;;;;;;;;;;5056261;28;20179;-48
2021/06/12 05:27:48;;;;;;;6.97;4.22;;;;;;;;;;5057057;28;20346;-48
2021/06/12 05:30:15;;;;;;;5.60;4.07;;;;;;;;;;5056701;28;20183;-48
2021/06/12 05:32:41;;;;;;;5.72;4.32;;;;;;;;;;5050028;28;20179;-48
2021/06/12 05:35:07;;;;;;;8.27;4.35;;;;;;;;;;5054834;28;20198;-48
2021/06/12 05:37:36;;;;;;;6.45;4.50;;;;;;;;;;5056438;28;20262;-48
2021/06/12 05:40:03;;;;;;;4.90;4.43;;;;;;;;;;5057860;28;20171;-48
2021/06/12 05:42:29;;;;;;;5.10;4.60;;;;;;;;;;5056539;28;20728;-48
2021/06/12 05:44:55;;;;;;;6.65;4.50;;;;;;;;;;5055963;28;20185;-48
2021/06/12 05:47:21;;;;;;;4.82;4.00;;;;;;;;;;5057413;28;20574;-48
2021/06/12 05:49:47;;;;;;;4.50;4.10;;;;;;;;;;5056322;28;20190;-48
2021/06/12 05:52:13;;;;;;;5.75;4.05;;;;;;;;;;5055453;28;20198;-48
2021/06/12 05:54:39;;;;;;;6.15;4.50;;;;;;;;;;5057721;28;20171;-47
2021/06/12 05:57:05;;;;;;;5.57;4.10;;;;;;;;;;5050286;28;20605;-48
2021/06/12 05:59:31;;;;;;;4.88;4.45;;;;;;;;;;5037444;28;20160;-48
2021/06/12 06:01:57;;;;;;;5.97;4.75;;;;;;;;;;5051859;28;20546;-48
2021/06/12 06:04:24;;;;;;;5.38;4.70;;;;;;;;;;5057579;28;20167;-48
2021/06/12 06:06:52;;;;;;;6.20;4.60;;;;;;;;;;5057236;28;20183;-48
2021/06/12 06:09:18;;;;;;;4.35;4.03;;;;;;;;;;5057237;28;20167;-48
2021/06/12 06:11:45;;;;;;;5.63;4.57;;;;;;;;;;5046076;28;20184;-48
2021/06/12 06:14:10;;;;;;;6.18;4.13;;;;;;;;;;5046580;28;20188;-48
2021/06/12 06:16:36;;;;;;;5.25;4.57;;;;;;;;;;5037499;28;20202;-48
2021/06/12 06:19:03;;;;;;;8.77;4.70;;;;;;;;;;5037428;28;20547;-48
2021/06/12 06:21:29;;;;;;;10.93;4.95;;;;;;;;;;5036708;28;20172;-47
2021/06/12 06:23:55;;;;;;;5.70;5.20;;;;;;;;;;5040026;28;20179;-48
2021/06/12 06:26:22;;;;;;;6.07;5.13;;;;;;;;;;5040584;28;20270;-48
2021/06/12 06:28:48;;;;;;;5.60;4.70;;;;;;;;;;5049910;28;20225;-48
2021/06/12 06:31:14;;;;;;;5.88;5.28;;;;;;;;;;5049919;28;20503;-48
2021/06/12 06:33:40;;;;;;;6.43;5.40;;;;;;;;;;5047828;28;20551;-48
2021/06/12 06:36:07;;;;;;;5.95;5.35;;;;;;;;;;5036970;28;20192;-48
2021/06/12 06:38:33;;;;;;;5.45;4.47;;;;;;;;;;5037186;28;20543;-48
2021/06/12 06:40:59;;;;;;;6.85;4.72;;;;;;;;;;5046552;28;20186;-47
2021/06/12 06:43:25;;;;;;;5.75;5.18;;;;;;;;;;5053152;28;20182;-48
2021/06/12 06:45:51;;;;;;;5.50;5.00;;;;;;;;;;5035961;28;20172;-48
2021/06/12 06:48:17;;;;;;;5.80;4.15;;;;;;;;;;5053040;28;20560;-48
2021/06/12 06:50:44;;;;;;;5.13;4.63;;;;;;;;;;5056485;28;20471;-48
2021/06/12 06:53:10;;;;;;;4.68;4.28;;;;;;;;;;5047833;28;20195;-48
2021/06/12 06:55:36;;;;;;;5.10;4.47;;;;;;;;;;5055762;28;20198;-48
2021/06/12 06:58:02;;;;;;;4.97;4.40;;;;;;;;;;5055449;28;20179;-48
2021/06/12 07:00:28;;;;;;;5.93;4.65;;;;;;;;;;5050756;28;20262;-48
2021/06/12 07:02:55;;;;;;;5.53;4.70;;;;;;;;;;5051330;28;20183;-48
2021/06/12 07:05:21;;;;;;;5.00;4.60;;;;;;;;;;5050335;28;20180;-47
2021/06/12 07:07:47;;;;;;;6.57;5.20;;;;;;;;;;5045998;28;20179;-47
2021/06/12 07:10:14;;;;;;;5.50;5.00;;;;;;;;;;5050665;28;20309;-48
2021/06/12 07:12:40;;;;;;;5.20;4.80;;;;;;;;;;5040983;28;20215;-48
2021/06/12 07:15:06;;;;;;;5.68;5.10;;;;;;;;;;5056304;28;20174;-47
2021/06/12 07:17:32;;;;;;;6.03;4.50;;;;;;;;;;5054142;28;20280;-48
2021/06/12 07:19:58;;;;;;;8.25;5.05;;;;;;;;;;5052999;28;20202;-48
2021/06/12 07:22:24;;;;;;;6.88;4.43;;;;;;;;;;5036349;28;20167;-48
2021/06/12 07:24:50;;;;;;;5.63;4.43;;;;;;;;;;5049455;28;20176;-48
2021/06/12 07:27:16;;;;;;;5.78;4.07;;;;;;;;;;5047973;28;20222;-48
2021/06/12 07:29:43;;;;;;;6.47;4.50;;;;;;;;;;5052027;28;20257;-48
2021/06/12 07:32:09;;;;;;;9.07;4.50;;;;;;;;;;5043410;28;20560;-47
2021/06/12 07:34:35;;;;;;;7.47;4.55;;;;;;;;;;5037651;28;20466;-48
2021/06/12 07:37:01;;;;;;;5.93;4.90;;;;;;;;;;5047183;28;20215;-48
2021/06/12 07:39:27;;;;;;;7.43;4.18;;;;;;;;;;5039163;28;20179;-48
2021/06/12 07:41:53;;;;;;;9.15;4.35;;;;;;;;;;5041500;28;20201;-48
2021/06/12 07:44:20;;;;;;;6.07;4.55;;;;;;;;;;5052577;28;20183;-48
2021/06/12 07:46:46;;;;;;;6.13;4.15;;;;;;;;;;5054444;28;20215;-48
2021/06/12 07:49:12;;;;;;;6.50;4.15;;;;;;;;;;5054771;28;20190;-48
2021/06/12 07:51:39;;;;;;;7.88;4.13;;;;;;;;;;5054769;28;20190;-47
2021/06/12 07:54:05;;;;;;;5.93;4.13;;;;;;;;;;5055350;28;20175;-48
2021/06/12 07:56:31;;;;;;;5.07;4.20;;;;;;;;;;5054805;28;20206;-48
2021/06/12 07:58:58;;;;;;;4.88;4.20;;;;;;;;;;5054993;28;20515;-48
2021/06/12 08:01:24;;;;;;;8.18;3.80;;;;;;;;;;5053117;28;20206;-47
2021/06/12 08:03:50;;;;;;;4.43;3.95;;;;;;;;;;5054219;28;20232;-48
2021/06/12 08:06:17;;;;;;;3.85;3.55;;;;;;;;;;5055133;28;20194;-48
2021/06/12 08:08:43;;;;;;;5.00;3.97;;;;;;;;;;5054616;28;20588;-48
2021/06/12 08:11:09;;;;;;;5.75;4.15;;;;;;;;;;5054443;28;20175;-48
2021/06/12 08:13:35;;;;;;;3.53;3.20;;;;;;;;;;5053836;28;20179;-47
2021/06/12 08:16:03;;;;;;;4.00;3.60;;;;;;;;;;5054799;28;20198;-48
2021/06/12 08:18:29;;;;;;;5.43;3.78;;;;;;;;;;5053416;28;20450;-48
2021/06/12 08:20:55;;;;;;;5.50;3.70;;;;;;;;;;5055580;28;20175;-47
2021/06/12 08:23:21;;;;;;;4.03;3.47;;;;;;;;;;5055885;28;20186;-48
2021/06/12 08:25:47;;;;;;;4.53;4.00;;;;;;;;;;5054870;28;20206;-47
2021/06/12 08:28:13;;;;;;;4.70;3.58;;;;;;;;;;5054827;28;20209;-48
2021/06/12 08:30:39;;;;;;;5.60;3.60;;;;;;;;;;5054321;28;20171;-48
2021/06/12 08:33:06;;;;;;;4.15;3.55;;;;;;;;;;5054696;28;20175;-48
2021/06/12 08:35:33;;;;;;;3.70;3.00;;;;;;;;;;5037144;28;20214;-48
2021/06/12 08:37:59;;;;;;;4.68;3.65;;;;;;;;;;5034278;28;20704;-48
2021/06/12 08:40:25;;;;;;;5.07;3.58;;;;;;;;;;5034553;28;20518;-47
2021/06/12 08:42:52;;;;;;;8.13;4.32;;;;;;;;;;5044320;28;20198;-48
2021/06/12 08:45:19;;;;;;;6.05;4.00;;;;;;;;;;5053378;28;20574;-48
2021/06/12 08:47:45;;;;;;;5.15;3.40;;;;;;;;;;5044683;28;20180;-48
2021/06/12 08:50:12;;;;;;;6.47;3.80;;;;;;;;;;5047497;28;20210;-48
2021/06/12 08:52:38;;;;;;;4.18;3.72;;;;;;;;;;5048269;28;20187;-48
2021/06/12 08:55:09;;;;;;;6.05;4.57;;;;;;;;;;5053816;28;20168;-48
2021/06/12 08:57:35;;;;;;;4.57;3.40;;;;;;;;;;5054019;28;20616;-48
2021/06/12 09:00:01;;;;;;;3.67;3.10;;;;;;;;;;5053207;28;20258;-47
2021/06/12 09:02:27;;;;;;;3.85;3.53;;;;;;;;;;5034093;28;20263;-48
2021/06/12 09:04:54;;;;;;;5.28;3.60;;;;;;;;;;5052952;28;20175;-48
2021/06/12 09:07:28;;;;;;;5.65;4.22;;;;;;;;;;5045284;28;20171;-47
2021/06/12 09:09:55;;;;;;;5.45;3.97;;;;;;;;;;5051731;28;20265;-48
2021/06/12 09:12:22;;;;;;;5.72;3.92;;;;;;;;;;5053735;28;20175;-48
2021/06/12 09:15:07;;;;;;;5.50;3.72;;;;;;;;;;5053716;28;20233;-48
2021/06/12 09:17:40;;;;;;;9.32;4.70;;;;;;;;;;5053805;28;20557;-48
2021/06/12 09:20:08;;;;;;;4.55;3.90;;;;;;;;;;5054385;28;20170;-48
2021/06/12 09:22:34;;;;;;;7.57;4.43;;;;;;;;;;5052878;28;20206;-47
2021/06/12 09:25:00;;;;;;;4.72;3.60;;;;;;;;;;5034254;28;20712;-48
2021/06/12 09:27:26;;;;;;;7.53;4.03;;;;;;;;;;5034299;28;20242;-48
2021/06/12 09:29:53;;;;;;;5.47;4.43;;;;;;;;;;5050089;28;20261;-48
2021/06/12 09:32:22;;;;;;;6.88;4.15;;;;;;;;;;5055985;28;20191;-48
2021/06/12 09:34:50;;;;;;;5.00;3.85;;;;;;;;;;5052815;28;20183;-48
2021/06/12 09:37:20;;;;;;;5.80;4.07;;;;;;;;;;5047339;28;20191;-48
2021/06/12 09:40:04;;;;;;;4.32;3.78;;;;;;;;;;5051681;28;20190;-48
2021/06/12 09:42:44;;;;;;;5.40;4.28;;;;;;;;;;5050253;28;20179;-48
2021/06/12 09:45:12;;;;;;;5.20;4.32;;;;;;;;;;5048558;28;20699;-48
2021/06/12 09:47:38;;;;;;;4.88;4.38;;;;;;;;;;5050026;28;20435;-48
2021/06/12 09:50:05;;;;;;;4.53;4.13;;;;;;;;;;5037026;28;20210;-48
2021/06/12 09:52:44;;;;;;;4.40;3.97;;;;;;;;;;5047168;28;20468;-48
2021/06/12 09:55:10;;;;;;;4.97;3.65;;;;;;;;;;5046172;28;20171;-48
2021/06/12 09:57:47;;;;;;;8.13;4.20;;;;;;;;;;5057300;28;20241;-48
2021/06/12 10:00:13;;;;;;;4.18;3.67;;;;;;;;;;5056928;28;20245;-48
2021/06/12 10:02:39;;;;;;;4.07;3.78;;;;;;;;;;5056275;28;20171;-48
2021/06/12 10:05:07;;;;;;;28.52;16.88;;;;;;;;;;5057302;28;20186;-47
2021/06/12 10:07:33;;;;;;;45.80;25.08;;;;;;;;;;5055574;28;20191;-48
2021/06/12 10:10:01;;;;;;;101.80;52.53;;;;;;;;;;5055951;28;20179;-48
2021/06/12 10:12:27;;;;;;;57.53;30.08;;;;;;;;;;5054936;28;20606;-48
2021/06/12 10:14:54;;;;;;;34.50;20.40;;;;;;;;;;5056811;28;20198;-48
2021/06/12 10:17:21;;;;;;;15.65;8.85;;;;;;;;;;5056768;28;20203;-48
2021/06/12 10:19:50;;;;;;;8.27;6.35;;;;;;;;;;5048868;28;20175;-48
2021/06/12 10:22:17;;;;;;;7.65;5.03;;;;;;;;;;5053741;28;20183;-47
2021/06/12 10:24:43;;;;;;;13.45;8.50;;;;;;;;;;5039063;28;20208;-48
2021/06/12 10:27:09;;;;;;;16.90;10.75;;;;;;;;;;5041587;28;20214;-48
2021/06/12 10:29:36;;;;;;;17.15;10.63;;;;;;;;;;5045319;28;20269;-48
2021/06/12 10:32:03;;;;;;;15.35;10.15;;;;;;;;;;5056245;28;20185;-48
2021/06/12 10:34:29;;;;;;;23.20;13.88;;;;;;;;;;5056150;28;20265;-48
2021/06/12 10:36:59;;;;;;;27.00;19.23;;;;;;;;;;5056968;28;20207;-48
2021/06/12 10:39:33;;;;;;;17.67;13.52;;;;;;;;;;5056181;28;20171;-48
2021/06/12 10:42:11;;;;;;;16.05;11.07;;;;;;;;;;5051187;28;20271;-48
2021/06/12 10:44:37;;;;;;;10.07;7.63;;;;;;;;;;5038554;28;20229;-48
2021/06/12 10:47:04;;;;;;;8.63;6.90;;;;;;;;;;5046459;28;20202;-48
2021/06/12 10:49:31;;;;;;;10.75;6.40;;;;;;;;;;5048800;28;20211;-48
2021/06/12 10:51:58;;;;;;;10.15;6.25;;;;;;;;;;5035848;28;20278;-48
2021/06/12 10:54:26;;;;;;;5.28;4.47;;;;;;;;;;5036428;28;20180;-48
2021/06/12 10:56:59;;;;;;;7.10;4.35;;;;;;;;;;5045224;28;20290;-48
2021/06/12 10:59:39;;;;;;;4.32;3.92;;;;;;;;;;5065605;28;20175;-48
2021/06/12 11:02:31;;;;;;;4.05;3.40;;;;;;;;;;5054468;28;20183;-48
2021/06/12 11:05:03;;;;;;;3.88;3.58;;;;;;;;;;5046495;28;20171;-48
2021/06/12 11:07:29;;;;;;;3.40;3.10;;;;;;;;;;5045130;28;20171;-48
2021/06/12 11:10:16;;;;;;;5.45;3.30;;;;;;;;;;5040221;28;20558;-48
2021/06/12 11:12:43;;;;;;;3.88;3.47;;;;;;;;;;5034208;28;20257;-48
2021/06/12 11:15:09;;;;;;;3.53;3.13;;;;;;;;;;5056050;28;20187;-48
2021/06/12 11:17:35;;;;;;;3.72;2.92;;;;;;;;;;5053949;28;20179;-48
2021/06/12 11:20:01;;;;;;;3.08;2.78;;;;;;;;;;5055514;28;20241;-48
2021/06/12 11:22:38;;;;;;;3.60;3.30;;;;;;;;;;5054583;28;20228;-48
2021/06/12 11:25:06;;;;;;;3.53;3.13;;;;;;;;;;5055899;28;20220;-48
2021/06/12 11:27:33;;;;;;;4.50;3.03;;;;;;;;;;5041999;28;20198;-48
2021/06/12 11:30:18;;;;;;;4.63;2.92;;;;;;;;;;5055392;28;20183;-47
2021/06/12 11:32:44;;;;;;;3.22;2.90;;;;;;;;;;5054221;28;20175;-48
2021/06/12 11:35:11;;;;;;;4.53;3.08;;;;;;;;;;5042196;28;20190;-48
2021/06/12 11:37:50;;;;;;;4.88;2.85;;;;;;;;;;5034592;28;20241;-48
2021/06/12 11:40:21;;;;;;;4.10;3.05;;;;;;;;;;5040859;28;20179;-48
2021/06/12 11:42:49;;;;;;;3.85;3.10;;;;;;;;;;5055375;28;20172;-48
2021/06/12 11:45:17;;;;;;;4.20;3.33;;;;;;;;;;5049383;28;20179;-48
2021/06/12 11:47:43;;;;;;;4.43;3.03;;;;;;;;;;5044504;28;20179;-48
2021/06/12 11:50:09;;;;;;;4.25;3.03;;;;;;;;;;5054755;28;20198;-48
2021/06/12 11:52:37;;;;;;;4.85;3.63;;;;;;;;;;5047579;28;20172;-48
2021/06/12 11:55:14;;;;;;;7.60;6.15;;;;;;;;;;5053015;28;20180;-48
2021/06/12 11:57:44;;;;;;;16.17;14.02;;;;;;;;;;5054904;28;20210;-48
2021/06/12 12:00:30;;;;;;;17.98;12.80;;;;;;;;;;5054823;28;20191;-48
2021/06/12 12:02:59;;;;;;;11.63;9.52;;;;;;;;;;5047259;28;20483;-48
2021/06/12 12:05:29;;;;;;;12.82;9.65;;;;;;;;;;5055101;28;20424;-48
2021/06/12 12:07:55;;;;;;;7.72;6.80;;;;;;;;;;5054934;28;20187;-48
2021/06/12 12:10:28;;;;;;;8.02;5.78;;;;;;;;;;5054376;28;20175;-48
2021/06/12 12:12:54;;;;;;;8.00;5.22;;;;;;;;;;5048959;28;20191;-48
2021/06/12 12:15:52;;;;;;;5.10;4.25;;;;;;;;;;5052674;28;20220;-48
2021/06/12 12:18:18;;;;;;;8.18;5.00;;;;;;;;;;5032382;28;20192;-48
2021/06/12 12:20:48;;;;;;;6.70;4.68;;;;;;;;;;5054028;28;20189;-48
2021/06/12 12:23:19;;;;;;;4.65;3.90;;;;;;;;;;5054746;28;20186;-48
2021/06/12 12:25:46;;;;;;;6.25;3.72;;;;;;;;;;5042270;28;20187;-48
2021/06/12 12:28:18;;;;;;;5.43;4.00;;;;;;;;;;5042860;28;20183;-48
2021/06/12 12:30:44;;;;;;;5.68;4.28;;;;;;;;;;5053939;28;20348;-48
2021/06/12 12:33:12;;;;;;;5.85;3.72;;;;;;;;;;5037802;28;20622;-48
2021/06/12 12:35:38;;;;;;;5.75;3.95;;;;;;;;;;5038388;28;20199;-48
2021/06/12 12:38:30;;;;;;;6.50;4.10;;;;;;;;;;5054887;28;20213;-48
2021/06/12 12:41:02;;;;;;;5.10;4.53;;;;;;;;;;5051907;28;20191;-48
2021/06/12 12:43:29;;;;;;;5.88;3.97;;;;;;;;;;5054228;28;20218;-48
2021/06/12 12:45:55;;;;;;;7.45;4.85;;;;;;;;;;5052856;28;20248;-48
2021/06/12 12:48:22;;;;;;;6.13;4.93;;;;;;;;;;5052379;28;20199;-48
2021/06/12 12:50:48;;;;;;;6.63;4.75;;;;;;;;;;5050494;28;20206;-48
2021/06/12 12:53:18;;;;;;;6.10;4.57;;;;;;;;;;5054510;28;20174;-48
2021/06/12 12:55:54;;;;;;;7.95;4.90;;;;;;;;;;5053515;28;20469;-48
2021/06/12 12:58:23;;;;;;;8.15;5.68;;;;;;;;;;5054265;28;20175;-48
2021/06/12 13:00:49;;;;;;;5.70;5.10;;;;;;;;;;5048068;28;20187;-48
2021/06/12 13:03:15;;;;;;;6.80;5.80;;;;;;;;;;5052265;28;20178;-48
2021/06/12 13:05:42;;;;;;;6.53;5.35;;;;;;;;;;5047055;28;20443;-48
2021/06/12 13:08:09;;;;;;;6.30;5.70;;;;;;;;;;5034413;28;20168;-48
2021/06/12 13:10:40;;;;;;;7.80;5.45;;;;;;;;;;5033978;28;20168;-48
2021/06/12 13:13:08;;;;;;;5.93;5.35;;;;;;;;;;5034417;28;20172;-48
2021/06/12 13:15:34;;;;;;;6.10;5.25;;;;;;;;;;5046407;28;20179;-48
2021/06/12 13:18:08;;;;;;;7.78;5.32;;;;;;;;;;5054339;28;20201;-48
2021/06/12 13:20:34;;;;;;;7.18;5.40;;;;;;;;;;5053589;28;20178;-48
2021/06/12 13:23:00;;;;;;;6.43;5.80;;;;;;;;;;5037786;28;20510;-48
2021/06/12 13:25:26;;;;;;;5.57;5.07;;;;;;;;;;5057491;28;20217;-48
2021/06/12 13:28:10;;;;;;;6.00;5.18;;;;;;;;;;5058159;28;20177;-48
2021/06/12 13:30:37;;;;;;;5.57;5.07;;;;;;;;;;5057195;28;20174;-48
2021/06/12 13:33:09;;;;;;;5.70;5.20;;;;;;;;;;5058089;28;20159;-48
2021/06/12 13:35:43;;;;;;;5.10;4.57;;;;;;;;;;5057958;28;22372;-48
2021/06/12 13:38:10;;;;;;;5.57;5.07;;;;;;;;;;5054133;28;20173;-48
2021/06/12 13:40:41;;;;;;;5.72;4.95;;;;;;;;;;5037640;28;20169;-48
2021/06/12 13:43:18;;;;;;;5.30;4.85;;;;;;;;;;5038047;28;20495;-48
2021/06/12 13:45:45;;;;;;;5.07;4.63;;;;;;;;;;5051575;28;20285;-48
2021/06/12 13:48:11;;;;;;;5.75;5.07;;;;;;;;;;5056343;28;20230;-48
2021/06/12 13:50:37;;;;;;;6.10;5.10;;;;;;;;;;5057400;28;20233;-48
2021/06/12 13:53:04;;;;;;;5.00;4.50;;;;;;;;;;5057648;28;20190;-48
2021/06/12 13:55:30;;;;;;;4.80;4.40;;;;;;;;;;5054904;28;20183;-48
2021/06/12 13:57:58;;;;;;;5.30;4.80;;;;;;;;;;5057371;28;20549;-48
2021/06/12 14:00:24;;;;;;;4.93;4.53;;;;;;;;;;5054744;28;20171;-48
2021/06/12 14:02:50;;;;;;;4.88;4.47;;;;;;;;;;5051453;28;20258;-48
2021/06/12 14:05:16;;;;;;;4.97;4.57;;;;;;;;;;5056527;28;20187;-48
2021/06/12 14:07:42;;;;;;;4.70;4.30;;;;;;;;;;5040739;28;20215;-48
2021/06/12 14:10:09;;;;;;;6.10;4.78;;;;;;;;;;5056766;28;20182;-48
2021/06/12 14:12:35;;;;;;;5.38;4.88;;;;;;;;;;5054377;28;20216;-48
2021/06/12 14:15:02;;;;;;;7.10;4.50;;;;;;;;;;5056319;28;20570;-48
2021/06/12 14:17:28;;;;;;;5.45;4.90;;;;;;;;;;5045422;28;20211;-48
2021/06/12 14:19:54;;;;;;;5.90;4.72;;;;;;;;;;5067500;28;20252;-48
2021/06/12 14:22:20;;;;;;;5.25;4.85;;;;;;;;;;5056162;28;20215;-48
2021/06/12 14:24:46;;;;;;;8.52;4.38;;;;;;;;;;5057121;28;20163;-48
2021/06/12 14:27:12;;;;;;;4.07;3.67;;;;;;;;;;5048933;28;20184;-48
2021/06/12 14:29:39;;;;;;;6.07;3.55;;;;;;;;;;5056403;28;20452;-48
2021/06/12 14:32:05;;;;;;;3.78;3.47;;;;;;;;;;5055831;28;20186;-48
2021/06/12 14:34:31;;;;;;;4.30;3.90;;;;;;;;;;5056612;28;20571;-48
2021/06/12 14:36:57;;;;;;;3.53;3.25;;;;;;;;;;5056798;28;20190;-48
2021/06/12 14:39:23;;;;;;;3.83;3.53;;;;;;;;;;5056937;28;20175;-48
2021/06/12 14:41:50;;;;;;;3.60;3.30;;;;;;;;;;5056128;28;20183;-48
2021/06/12 14:44:18;;;;;;;4.18;3.00;;;;;;;;;;5055512;28;20175;-48